Time;durP1;ratioP1;P1;durP2;ratioP2;P2;SDS_P1;SDS_P2;PMS_P1;PMS_P2;Temp;Humidity;BMP_temperature;BMP_pressure;BME280_temperature;BME280_humidity;BME280_pressure;Samples;Min_cycle;Max_cycle;Signal;HPM_P1;HPM_P2
2022/08/05 00:00:12;;;;;;;4.60;3.95;;;;;;;22.86;60.57;97842.50;5028814;28;20448;-71
2022/08/05 00:02:42;;;;;;;4.45;3.40;;;;;;;22.93;60.84;97841.28;5020152;28;20070;-72
2022/08/05 00:05:20;;;;;;;5.53;3.30;;;;;;;23.00;60.68;97839.22;5022843;28;20100;-72
2022/08/05 00:08:08;;;;;;;4.55;3.90;;;;;;;23.03;59.27;97839.78;5027078;28;20054;-72
2022/08/05 00:10:55;;;;;;;4.15;3.40;;;;;;;23.02;59.11;97833.59;5015755;28;20086;-72
2022/08/05 00:13:21;;;;;;;4.05;3.70;;;;;;;23.07;60.65;97833.66;5021926;28;20041;-72
2022/08/05 00:16:06;;;;;;;4.68;3.33;;;;;;;23.06;60.15;97828.50;5025554;28;20520;-71
2022/08/05 00:18:35;;;;;;;4.22;3.80;;;;;;;22.89;60.01;97829.34;5024012;28;21835;-72
2022/08/05 00:21:04;;;;;;;3.90;3.50;;;;;;;22.74;60.47;97832.63;5020637;28;20076;-72
2022/08/05 00:23:35;;;;;;;3.97;3.67;;;;;;;22.65;60.87;97830.59;5025327;28;20042;-72
2022/08/05 00:26:19;;;;;;;5.80;3.70;;;;;;;22.61;61.55;97834.84;5025518;28;20479;-72
2022/08/05 00:28:46;;;;;;;7.10;4.45;;;;;;;22.67;61.60;97836.53;5023226;28;20500;-72
2022/08/05 00:31:14;;;;;;;5.97;3.67;;;;;;;22.69;61.18;97835.22;5014416;28;20547;-72
2022/08/05 00:33:41;;;;;;;11.20;4.03;;;;;;;22.76;61.79;97833.19;5027243;28;20043;-72
2022/08/05 00:36:29;;;;;;;3.97;3.55;;;;;;;22.87;61.37;97841.44;5031302;28;20056;-72
2022/08/05 00:39:15;;;;;;;3.50;3.20;;;;;;;22.87;60.67;97841.44;5022281;28;20050;-72
2022/08/05 00:41:46;;;;;;;6.10;3.85;;;;;;;22.85;61.40;97843.56;5022593;28;20046;-72
2022/08/05 00:44:21;;;;;;;3.80;3.40;;;;;;;22.73;61.79;97847.16;4999499;28;20105;-71
2022/08/05 00:46:55;;;;;;;3.88;3.58;;;;;;;22.61;61.08;97849.13;5011188;28;20084;-72
2022/08/05 00:49:31;;;;;;;3.88;3.58;;;;;;;22.47;62.11;97845.97;5020577;28;20041;-72
2022/08/05 00:52:16;;;;;;;5.32;3.63;;;;;;;22.58;62.63;97863.13;5007848;28;20049;-72
2022/08/05 00:54:43;;;;;;;4.65;3.95;;;;;;;22.51;61.73;97870.53;5020762;28;20038;-72
2022/08/05 00:57:09;;;;;;;4.85;3.33;;;;;;;22.42;62.18;97872.03;5021518;28;20052;-71
2022/08/05 00:59:36;;;;;;;4.28;3.50;;;;;;;22.29;62.84;97890.13;5021770;28;20072;-72
2022/08/05 01:02:10;;;;;;;3.47;2.90;;;;;;;22.23;63.21;97888.41;5017523;28;20041;-72
2022/08/05 01:04:36;;;;;;;6.70;3.38;;;;;;;22.09;63.19;97887.03;5020609;28;20179;-72
2022/08/05 01:07:07;;;;;;;12.07;6.03;;;;;;;22.34;64.34;97898.31;5015836;28;20757;-72
2022/08/05 01:09:40;;;;;;;6.88;6.18;;;;;;;22.68;63.80;97911.81;5020243;28;20053;-71
2022/08/05 01:12:09;;;;;;;7.47;5.13;;;;;;;22.98;60.31;97903.38;5021255;28;20053;-71
2022/08/05 01:14:53;;;;;;;9.93;4.68;;;;;;;23.11;58.57;97904.94;5023221;28;21259;-71
2022/08/05 01:17:30;;;;;;;4.28;3.55;;;;;;;23.26;56.38;97890.84;5004324;28;20044;-71
2022/08/05 01:20:08;;;;;;;6.80;4.45;;;;;;;23.23;57.29;97902.94;5021818;28;20049;-71
2022/08/05 01:22:58;;;;;;;6.53;3.92;;;;;;;23.23;56.24;97915.63;5021068;28;20060;-72
2022/08/05 01:26:00;;;;;;;6.35;3.40;;;;;;;23.32;52.20;97914.13;5023990;28;20517;-72
2022/08/05 01:28:37;;;;;;;6.03;3.28;;;;;;;23.35;53.29;97929.81;5024621;28;20049;-72
2022/08/05 01:31:17;;;;;;;6.95;3.08;;;;;;;23.28;51.89;97928.38;5007184;28;20045;-71
2022/08/05 01:34:04;;;;;;;4.05;2.88;;;;;;;23.20;53.95;97922.34;4997022;28;20037;-71
2022/08/05 01:36:39;;;;;;;4.82;2.95;;;;;;;23.19;52.47;97931.47;5030484;28;20049;-71
2022/08/05 01:39:14;;;;;;;3.72;3.00;;;;;;;23.23;53.16;97929.94;5017068;28;20121;-72
2022/08/05 01:42:02;;;;;;;5.07;2.85;;;;;;;23.24;52.99;97925.34;5023795;28;20041;-71
2022/08/05 01:44:29;;;;;;;9.88;3.10;;;;;;;23.25;53.82;97934.25;5025545;28;20508;-72
2022/08/05 01:47:01;;;;;;;5.85;2.70;;;;;;;23.29;52.91;97940.81;5019533;28;20052;-71
2022/08/05 01:49:31;;;;;;;7.50;2.70;;;;;;;23.21;54.55;97944.75;5007247;28;20112;-71
2022/08/05 01:52:19;;;;;;;7.95;3.40;;;;;;;23.22;53.83;97958.00;5020592;28;20128;-72
2022/08/05 01:54:57;;;;;;;5.10;2.72;;;;;;;23.13;56.02;97964.06;5031448;28;20034;-71
2022/08/05 01:57:31;;;;;;;6.05;3.58;;;;;;;23.14;54.32;97966.50;4987799;28;20173;-72
2022/08/05 02:00:18;;;;;;;3.03;2.63;;;;;;;23.10;54.66;97943.78;5003757;28;20083;-72
2022/08/05 02:02:52;;;;;;;4.80;2.65;;;;;;;23.09;55.08;97952.94;5022678;28;20053;-71
2022/08/05 02:05:23;;;;;;;6.70;3.08;;;;;;;23.11;56.03;97961.59;4997475;28;20049;-71
2022/08/05 02:07:54;;;;;;;7.72;3.22;;;;;;;23.05;55.53;97961.78;4996952;28;20144;-72
2022/08/05 02:10:33;;;;;;;9.20;3.25;;;;;;;23.00;57.40;97955.22;5017691;28;20109;-72
2022/08/05 02:13:15;;;;;;;6.78;2.63;;;;;;;22.96;56.97;97959.50;5013302;28;20042;-71
2022/08/05 02:15:46;;;;;;;5.18;2.50;;;;;;;22.95;55.98;97955.09;5014960;28;20069;-71
2022/08/05 02:18:35;;;;;;;5.63;2.88;;;;;;;22.90;56.86;97948.81;5033145;28;20045;-72
2022/08/05 02:21:20;;;;;;;9.75;3.13;;;;;;;22.87;57.23;97944.72;5012963;28;20046;-72
2022/08/05 02:23:49;;;;;;;4.38;2.90;;;;;;;22.79;57.04;97947.84;5014924;28;20056;-72
2022/08/05 02:26:21;;;;;;;5.07;2.80;;;;;;;22.67;58.96;97949.78;5011833;28;20048;-71
2022/08/05 02:28:48;;;;;;;7.60;2.80;;;;;;;22.54;58.60;97964.44;5017216;28;20415;-72
2022/08/05 02:31:23;;;;;;;10.88;2.70;;;;;;;22.47;60.17;97967.25;5006963;28;20050;-72
2022/08/05 02:33:58;;;;;;;5.18;2.88;;;;;;;22.35;60.29;97961.09;4997562;28;20050;-71
2022/08/05 02:36:26;;;;;;;7.18;2.65;;;;;;;22.34;61.08;97962.97;5038482;28;20041;-72
2022/08/05 02:38:59;;;;;;;7.50;2.70;;;;;;;22.32;61.10;97967.78;5021575;28;20037;-71
2022/08/05 02:41:26;;;;;;;7.13;3.03;;;;;;;22.32;61.68;97965.09;5019005;28;20041;-72
2022/08/05 02:44:05;;;;;;;4.35;2.50;;;;;;;22.30;61.88;97964.53;5008818;28;20104;-72
2022/08/05 02:46:38;;;;;;;4.03;2.67;;;;;;;22.22;61.41;97959.53;4998408;28;20050;-72
2022/08/05 02:49:19;;;;;;;4.43;2.90;;;;;;;22.31;60.98;97968.03;5017649;28;20120;-71
2022/08/05 02:51:47;;;;;;;9.60;2.90;;;;;;;22.40;61.77;97963.88;5034395;28;20054;-72
2022/08/05 02:54:30;;;;;;;8.82;3.00;;;;;;;22.44;60.37;97964.25;5023740;28;20064;-71
2022/08/05 02:57:04;;;;;;;9.05;2.95;;;;;;;22.37;60.84;97964.38;4996395;28;20091;-72
2022/08/05 02:59:50;;;;;;;7.53;3.20;;;;;;;22.23;61.69;97960.34;5007078;28;20104;-72
2022/08/05 03:02:19;;;;;;;8.00;3.33;;;;;;;22.13;62.25;97966.31;5013453;28;20393;-72
2022/08/05 03:04:47;;;;;;;10.88;3.55;;;;;;;22.19;62.11;97960.00;5018796;28;20546;-71
2022/08/05 03:07:19;;;;;;;8.00;3.00;;;;;;;22.11;61.65;97963.06;4996120;28;20053;-71
2022/08/05 03:10:07;;;;;;;5.20;3.13;;;;;;;21.98;61.97;97963.34;5017761;28;20130;-72
2022/08/05 03:12:36;;;;;;;6.28;2.78;;;;;;;21.90;63.21;97967.22;5021096;28;20099;-72
2022/08/05 03:15:04;;;;;;;7.20;2.83;;;;;;;21.92;62.79;97975.88;5012429;28;20052;-71
2022/08/05 03:17:33;;;;;;;6.38;2.97;;;;;;;21.79;62.88;97986.91;5014552;28;20042;-71
2022/08/05 03:20:08;;;;;;;6.82;3.03;;;;;;;21.92;63.36;97990.16;5014110;28;20093;-71
2022/08/05 03:22:35;;;;;;;8.82;3.55;;;;;;;22.11;62.21;98000.75;5010585;28;20398;-72
2022/08/05 03:25:02;;;;;;;4.85;2.97;;;;;;;22.19;62.32;97992.34;5017387;28;20044;-71
2022/08/05 03:27:50;;;;;;;8.27;3.17;;;;;;;22.26;61.34;97995.72;5019863;28;20053;-72
2022/08/05 03:30:27;;;;;;;7.95;3.75;;;;;;;22.28;61.85;98008.97;5014197;28;20101;-72
2022/08/05 03:33:02;;;;;;;7.03;2.92;;;;;;;22.20;62.06;98004.75;5031880;28;20053;-71
2022/08/05 03:35:32;;;;;;;8.98;3.28;;;;;;;22.21;61.06;98009.09;5013828;28;20080;-71
2022/08/05 03:37:59;;;;;;;9.77;3.20;;;;;;;22.22;61.78;98009.91;5017867;28;20096;-72
2022/08/05 03:40:26;;;;;;;13.38;3.78;;;;;;;22.20;62.22;98009.34;5019971;28;20040;-72
2022/08/05 03:42:58;;;;;;;8.75;3.25;;;;;;;22.06;62.14;97993.38;5031543;28;20452;-72
2022/08/05 03:45:46;;;;;;;11.13;2.80;;;;;;;21.87;63.16;97995.44;5009750;28;20061;-72
2022/08/05 03:48:25;;;;;;;5.40;3.17;;;;;;;21.90;63.64;98007.59;5003319;28;20065;-72
2022/08/05 03:51:04;;;;;;;8.25;3.33;;;;;;;21.91;63.48;98009.25;5016229;28;20042;-72
2022/08/05 03:53:57;;;;;;;13.40;3.60;;;;;;;21.87;62.88;98014.28;5006091;28;20065;-72
2022/08/05 03:56:45;;;;;;;8.48;2.72;;;;;;;21.76;63.21;98000.88;5019265;28;20595;-72
2022/08/05 03:59:25;;;;;;;6.43;3.33;;;;;;;21.54;63.28;97992.56;5001247;28;20108;-72
2022/08/05 04:02:13;;;;;;;7.65;3.42;;;;;;;21.40;63.72;97979.34;5010741;28;20511;-72
2022/08/05 04:04:43;;;;;;;9.52;3.00;;;;;;;21.36;64.31;97980.06;5015399;28;20129;-72
2022/08/05 04:07:10;;;;;;;5.30;3.00;;;;;;;21.36;64.70;97980.06;4993402;28;20046;-72
2022/08/05 04:09:39;;;;;;;9.73;3.30;;;;;;;21.34;64.93;97977.56;5013278;28;20049;-71
2022/08/05 04:12:19;;;;;;;7.30;3.60;;;;;;;21.45;65.07;97987.53;5026929;28;20455;-72
2022/08/05 04:14:50;;;;;;;15.77;3.15;;;;;;;21.58;64.69;97999.13;5014826;28;20041;-72
2022/08/05 04:17:17;;;;;;;4.60;3.10;;;;;;;21.44;64.70;97993.19;5013722;28;20057;-71
2022/08/05 04:19:45;;;;;;;8.05;3.17;;;;;;;21.27;64.33;97993.84;5006902;28;20575;-72
2022/08/05 04:22:20;;;;;;;9.35;3.05;;;;;;;21.21;64.97;97991.25;5005740;28;20152;-72
2022/08/05 04:24:47;;;;;;;10.00;3.00;;;;;;;21.18;64.73;97991.75;5028184;28;20578;-72
2022/08/05 04:27:18;;;;;;;11.57;2.85;;;;;;;21.13;65.55;97995.13;5020291;28;20073;-73
2022/08/05 04:30:07;;;;;;;14.10;3.88;;;;;;;21.13;65.14;98010.44;5013954;28;20045;-72
2022/08/05 04:32:34;;;;;;;7.28;3.20;;;;;;;21.44;65.11;98034.34;5018976;28;20668;-72
2022/08/05 04:35:02;;;;;;;6.05;2.65;;;;;;;21.50;65.05;98053.31;5023837;28;20634;-72
2022/08/05 04:37:31;;;;;;;10.35;3.53;;;;;;;21.54;64.76;98070.63;5021135;28;20041;-71
2022/08/05 04:40:18;;;;;;;6.32;3.25;;;;;;;21.59;64.83;98084.19;5016553;28;20053;-71
2022/08/05 04:42:45;;;;;;;15.82;3.65;;;;;;;21.65;64.29;98104.81;5019358;28;20041;-72
2022/08/05 04:45:11;;;;;;;7.10;3.13;;;;;;;21.66;63.89;98111.84;5019196;28;20034;-73
2022/08/05 04:48:10;;;;;;;7.15;3.38;;;;;;;21.65;64.71;98111.00;5009313;28;20108;-73
2022/08/05 04:50:53;;;;;;;5.78;3.40;;;;;;;21.73;64.54;98122.50;5026195;28;20399;-72
2022/08/05 04:53:37;;;;;;;6.78;3.17;;;;;;;21.79;64.70;98125.06;5027115;28;20500;-72
2022/08/05 04:56:08;;;;;;;8.52;3.35;;;;;;;21.78;64.19;98134.19;5023105;28;20049;-72
2022/08/05 04:58:54;;;;;;;9.07;3.20;;;;;;;21.89;64.09;98146.84;5024849;28;20045;-72
2022/08/05 05:01:21;;;;;;;9.25;3.35;;;;;;;22.00;63.94;98150.59;5022913;28;20045;-72
2022/08/05 05:04:08;;;;;;;7.88;3.85;;;;;;;22.09;62.59;98142.97;5022001;28;20056;-72
2022/08/05 05:06:35;;;;;;;10.50;3.72;;;;;;;22.07;63.58;98158.56;5027506;28;20100;-72
2022/08/05 05:09:14;;;;;;;12.07;3.28;;;;;;;22.07;63.35;98170.16;5020901;28;20055;-73
2022/08/05 05:11:43;;;;;;;8.13;3.58;;;;;;;22.10;62.76;98188.53;5017707;28;20037;-72
2022/08/05 05:14:21;;;;;;;9.20;4.45;;;;;;;22.20;63.70;98198.75;5021551;28;20072;-72
2022/08/05 05:17:00;;;;;;;9.02;3.55;;;;;;;22.22;62.79;98204.75;5008267;28;20414;-72
2022/08/05 05:19:29;;;;;;;6.57;3.60;;;;;;;22.24;63.12;98194.53;5014714;28;20137;-70
2022/08/05 05:22:12;;;;;;;12.43;4.55;;;;;;;22.24;63.23;98199.09;5015186;28;20886;-70
2022/08/05 05:24:50;;;;;;;17.35;4.38;;;;;;;22.26;63.41;98211.28;5011612;28;20049;-70
2022/08/05 05:27:23;;;;;;;10.93;4.38;;;;;;;22.38;62.87;98222.06;5011794;28;20042;-71
2022/08/05 05:30:08;;;;;;;14.40;4.85;;;;;;;22.45;62.70;98220.06;5018072;28;20135;-70
2022/08/05 05:32:54;;;;;;;11.43;4.70;;;;;;;22.56;62.83;98215.69;5011578;28;20050;-70
2022/08/05 05:35:21;;;;;;;10.93;4.15;;;;;;;22.68;62.10;98210.31;5016083;28;20048;-70
2022/08/05 05:37:49;;;;;;;8.68;4.28;;;;;;;22.75;62.07;98211.81;5012240;28;20120;-71
2022/08/05 05:40:28;;;;;;;8.68;5.03;;;;;;;22.85;62.82;98215.75;5008765;28;20046;-70
2022/08/05 05:42:55;;;;;;;13.23;4.80;;;;;;;22.91;62.43;98217.53;5013337;28;20124;-70
2022/08/05 05:45:22;;;;;;;6.78;4.32;;;;;;;22.99;62.55;98233.34;5013668;28;20042;-70
2022/08/05 05:47:50;;;;;;;9.20;4.80;;;;;;;23.06;61.97;98242.13;5011702;28;20049;-70
2022/08/05 05:50:35;;;;;;;8.15;4.07;;;;;;;23.12;61.97;98243.06;5010526;28;20045;-70
2022/08/05 05:53:12;;;;;;;13.65;4.28;;;;;;;23.18;61.46;98247.50;5013592;28;20055;-70
2022/08/05 05:55:48;;;;;;;6.43;4.05;;;;;;;23.27;61.26;98247.91;5015902;28;20053;-71
2022/08/05 05:58:26;;;;;;;5.78;3.90;;;;;;;23.33;60.20;98253.19;5016941;28;20431;-71
2022/08/05 06:01:00;;;;;;;7.93;3.97;;;;;;;23.41;60.15;98262.78;5025279;28;20068;-70
2022/08/05 06:03:38;;;;;;;8.98;4.57;;;;;;;23.44;60.37;98257.72;5012679;28;20479;-71
2022/08/05 06:06:25;;;;;;;8.68;3.63;;;;;;;23.69;59.44;98263.81;5021888;28;20496;-70
2022/08/05 06:08:57;;;;;;;5.88;3.40;;;;;;;23.65;59.06;98269.69;5014405;28;20600;-70
2022/08/05 06:11:24;;;;;;;5.72;3.80;;;;;;;23.66;58.75;98265.94;5008130;28;20037;-70
2022/08/05 06:13:51;;;;;;;13.20;3.70;;;;;;;23.78;58.03;98273.19;5018292;28;20049;-70
2022/08/05 06:16:21;;;;;;;7.20;3.28;;;;;;;23.94;56.57;98271.56;5013660;28;20053;-70
2022/08/05 06:18:58;;;;;;;9.90;3.20;;;;;;;24.06;56.73;98262.31;5014864;28;20033;-71
2022/08/05 06:21:33;;;;;;;7.88;3.28;;;;;;;24.18;56.42;98256.81;5012630;28;20153;-71
2022/08/05 06:24:07;;;;;;;4.28;3.10;;;;;;;24.20;56.44;98262.81;5013741;28;22715;-70
2022/08/05 06:26:39;;;;;;;5.30;3.55;;;;;;;24.14;56.66;98254.84;5012684;28;20038;-70
2022/08/05 06:29:19;;;;;;;4.03;2.97;;;;;;;24.33;55.27;98242.72;5017882;28;20037;-70
2022/08/05 06:32:06;;;;;;;8.90;2.75;;;;;;;24.62;54.56;98248.00;5018806;28;20543;-70
2022/08/05 06:34:51;;;;;;;6.30;3.10;;;;;;;24.43;55.37;98245.56;5013744;28;20108;-70
2022/08/05 06:37:19;;;;;;;6.72;3.15;;;;;;;24.54;55.32;98227.66;5014160;28;20612;-71
2022/08/05 06:40:06;;;;;;;6.90;3.15;;;;;;;24.53;54.49;98224.09;5012578;28;20050;-71
2022/08/05 06:42:33;;;;;;;9.88;3.15;;;;;;;24.65;54.45;98236.72;5019935;28;20052;-71
2022/08/05 06:44:59;;;;;;;5.80;3.05;;;;;;;24.60;54.88;98244.75;5019770;28;20448;-70
2022/08/05 06:47:34;;;;;;;7.43;3.20;;;;;;;24.40;55.93;98242.53;5018980;28;20041;-70
2022/08/05 06:50:20;;;;;;;6.20;2.83;;;;;;;24.52;54.98;98244.09;5013629;28;20061;-71
2022/08/05 06:52:47;;;;;;;11.43;3.40;;;;;;;24.49;55.33;98252.72;5013949;28;20057;-71
2022/08/05 06:55:34;;;;;;;5.72;3.33;;;;;;;24.65;54.62;98250.25;5012800;28;20038;-70
2022/08/05 06:58:02;;;;;;;8.10;3.15;;;;;;;24.74;53.82;98240.59;5014367;28;20045;-70
2022/08/05 07:00:45;;;;;;;5.28;2.95;;;;;;;25.08;53.29;98241.28;5019902;28;20056;-70
2022/08/05 07:03:12;;;;;;;7.03;3.13;;;;;;;25.47;51.94;98253.94;5016405;28;20049;-71
2022/08/05 07:05:42;;;;;;;7.20;2.80;;;;;;;25.60;51.21;98248.13;5014101;28;20062;-70
2022/08/05 07:08:11;;;;;;;6.20;3.20;;;;;;;25.24;53.16;98261.28;4994835;28;20049;-70
2022/08/05 07:10:38;;;;;;;5.07;2.72;;;;;;;25.24;53.25;98261.28;5013415;28;20045;-70
2022/08/05 07:19:29;;;;;;;5.20;2.67;;;;;;;25.00;54.11;98284.22;5018153;28;20054;-71
2022/08/05 07:22:15;;;;;;;7.38;3.35;;;;;;;24.93;55.39;98284.41;5017591;28;20058;-70
2022/08/05 07:24:42;;;;;;;6.80;3.25;;;;;;;24.93;54.94;98295.22;5013247;28;20056;-71
2022/08/05 07:27:09;;;;;;;4.50;3.10;;;;;;;24.77;54.59;98312.34;5020013;28;20493;-70
2022/08/05 07:29:36;;;;;;;7.80;2.97;;;;;;;24.82;54.58;98304.28;5019172;28;20045;-70
2022/08/05 07:32:22;;;;;;;8.73;2.75;;;;;;;25.26;54.42;98294.34;5016355;28;20061;-70
2022/08/05 07:34:52;;;;;;;4.78;3.08;;;;;;;25.49;52.83;98300.53;4917202;28;130128;-71
2022/08/05 07:37:24;;;;;;;8.45;3.63;;;;;;;25.72;53.75;98294.00;4980198;28;68980;-71
2022/08/05 07:40:02;;;;;;;14.35;3.65;;;;;;;25.67;52.86;98283.91;4962924;28;20081;-70
2022/08/05 07:42:48;;;;;;;6.22;2.88;;;;;;;25.80;51.07;98288.97;4907370;28;124408;-70
2022/08/05 07:45:15;;;;;;;4.22;3.00;;;;;;;26.20;50.89;98298.53;4989017;28;20054;-71
2022/08/05 07:47:56;;;;;;;3.78;2.60;;;;;;;26.23;47.66;98298.03;4988249;28;20063;-70
2022/08/05 07:50:24;;;;;;;4.75;2.80;;;;;;;25.73;49.24;98299.19;4983447;28;20042;-70
2022/08/05 07:52:58;;;;;;;14.35;3.33;;;;;;;25.83;50.00;98298.47;4987646;28;20058;-70
2022/08/05 07:55:25;;;;;;;8.05;3.53;;;;;;;25.92;51.35;98294.22;4986558;28;20045;-70
2022/08/05 07:58:12;;;;;;;3.53;2.30;;;;;;;25.86;49.41;98291.72;4984563;28;20452;-71
2022/08/05 08:00:58;;;;;;;4.15;2.35;;;;;;;25.70;51.26;98293.44;4995180;28;20074;-70
2022/08/05 08:03:29;;;;;;;3.53;2.42;;;;;;;25.71;50.68;98300.50;4998581;28;20130;-70
2022/08/05 08:06:10;;;;;;;6.03;2.80;;;;;;;25.80;50.77;98302.50;4993199;28;20120;-71
2022/08/05 08:08:36;;;;;;;5.32;2.50;;;;;;;25.63;49.72;98296.38;4991511;28;20042;-71
2022/08/05 08:11:03;;;;;;;3.95;2.80;;;;;;;25.91;50.40;98300.75;4991255;28;20039;-71
2022/08/05 08:13:34;;;;;;;3.92;2.20;;;;;;;26.11;47.89;98297.38;4993981;28;20464;-71
2022/08/05 08:16:20;;;;;;;7.53;2.40;;;;;;;26.57;45.40;98295.03;4993894;28;20037;-71
2022/08/05 08:19:07;;;;;;;3.45;1.90;;;;;;;26.70;45.55;98288.34;4992964;28;20132;-70
2022/08/05 08:21:53;;;;;;;2.72;2.35;;;;;;;26.69;45.55;98297.53;4992388;28;20540;-70
2022/08/05 08:24:20;;;;;;;6.22;2.45;;;;;;;26.46;47.10;98301.44;4992397;28;20039;-72
2022/08/05 08:27:07;;;;;;;3.13;1.85;;;;;;;26.90;43.72;98295.75;4992895;28;20050;-70
2022/08/05 08:29:33;;;;;;;2.65;1.70;;;;;;;26.67;45.95;98292.41;4992395;28;20150;-71
2022/08/05 08:32:20;;;;;;;13.65;2.38;;;;;;;26.75;43.71;98288.34;4990850;28;20054;-70
2022/08/05 08:34:53;;;;;;;5.60;2.22;;;;;;;26.89;44.22;98286.00;4991210;28;20050;-70
2022/08/05 08:37:22;;;;;;;7.03;2.30;;;;;;;26.24;51.11;98288.00;4994092;28;20105;-70
2022/08/05 08:41:29;;;;;;;10.38;3.85;;;;;;;25.25;56.19;98279.16;5048180;28;20448;-70
2022/08/05 08:44:17;;;;;;;5.68;2.33;;;;;;;25.63;50.10;98282.81;5046199;28;20052;-69
2022/08/05 08:47:05;;;;;;;2.22;2.03;;;;;;;25.98;49.15;98279.63;5053227;28;20051;-69
2022/08/05 08:49:53;;;;;;;2.78;2.00;;;;;;;26.20;48.93;98268.72;5050249;28;20426;-70
2022/08/05 08:52:41;;;;;;;2.25;2.03;;;;;;;26.54;47.37;98270.31;5050475;28;20092;-70
2022/08/05 08:55:13;;;;;;;4.47;1.83;;;;;;;26.85;47.56;98261.25;5048314;28;20039;-70
2022/08/05 08:57:47;;;;;;;3.78;2.05;;;;;;;27.00;45.49;98257.81;5050766;28;20083;-70
2022/08/05 09:00:24;;;;;;;5.55;2.00;;;;;;;27.01;45.06;98266.75;5058835;28;20044;-70
2022/08/05 09:02:53;;;;;;;2.35;1.63;;;;;;;27.71;42.28;98262.63;5053092;28;20045;-70
2022/08/05 09:05:20;;;;;;;4.10;2.05;;;;;;;28.04;43.09;98254.25;5052355;28;20052;-70
2022/08/05 09:08:07;;;;;;;2.50;2.05;;;;;;;27.89;41.98;98253.19;5058696;28;20049;-70
2022/08/05 09:10:35;;;;;;;2.42;1.75;;;;;;;27.93;44.32;98259.69;5052266;28;20035;-70
2022/08/05 09:13:05;;;;;;;3.13;1.70;;;;;;;28.15;41.38;98248.56;5050163;28;20474;-70
2022/08/05 09:15:33;;;;;;;2.17;1.52;;;;;;;28.35;40.21;98250.41;5051751;28;20045;-70
2022/08/05 09:18:06;;;;;;;3.83;2.22;;;;;;;28.28;40.74;98246.34;5049920;28;20088;-70
2022/08/05 09:20:35;;;;;;;4.03;2.00;;;;;;;28.12;40.89;98240.94;5053620;28;20581;-69
2022/08/05 09:23:13;;;;;;;2.63;1.85;;;;;;;28.38;41.29;98230.00;5057343;28;20060;-70
2022/08/05 09:25:51;;;;;;;2.70;1.92;;;;;;;28.63;39.72;98223.72;5055352;28;20136;-69
2022/08/05 09:28:29;;;;;;;5.47;1.85;;;;;;;28.73;39.51;98225.63;5055074;28;20107;-70
2022/08/05 09:31:05;;;;;;;7.30;1.90;;;;;;;28.11;42.08;98222.16;5052705;28;20036;-70
2022/08/05 09:33:55;;;;;;;2.95;1.98;;;;;;;28.70;40.96;98210.66;5049281;28;20045;-69
2022/08/05 09:36:22;;;;;;;4.47;2.17;;;;;;;28.64;39.66;98209.81;5048899;28;20053;-70
2022/08/05 09:39:04;;;;;;;2.42;1.95;;;;;;;28.89;39.61;98205.38;5051405;28;20036;-70
2022/08/05 09:42:03;;;;;;;2.88;2.00;;;;;;;28.49;40.19;98204.44;5055529;28;20472;-70
2022/08/05 09:44:41;;;;;;;3.00;1.90;;;;;;;28.66;41.33;98202.19;5059392;28;20048;-70
2022/08/05 09:47:11;;;;;;;2.38;1.98;;;;;;;29.12;38.64;98192.22;5050672;28;20053;-70
2022/08/05 09:49:51;;;;;;;2.17;1.95;;;;;;;29.18;38.45;98202.00;5053870;28;20059;-70
2022/08/05 09:52:34;;;;;;;3.47;1.80;;;;;;;29.29;37.89;98198.13;5039495;28;20051;-70
2022/08/05 09:55:06;;;;;;;99.83;10.23;;;;;;;29.04;39.39;98185.41;5045941;28;20063;-73
2022/08/05 09:57:52;;;;;;;10.48;2.63;;;;;;;28.52;44.81;98192.19;5037193;28;20045;-74
2022/08/05 10:00:24;;;;;;;3.60;1.73;;;;;;;27.96;41.28;98193.91;5030447;28;20049;-74
2022/08/05 10:02:55;;;;;;;3.10;2.15;;;;;;;28.52;39.13;98194.91;5045757;28;20129;-74
2022/08/05 10:05:28;;;;;;;18.88;3.75;;;;;;;28.02;46.57;98198.25;5036654;28;20068;-73
2022/08/05 10:08:05;;;;;;;7.55;2.65;;;;;;;28.26;44.02;98202.31;5037700;28;20428;-73
2022/08/05 10:10:51;;;;;;;3.88;1.95;;;;;;;28.13;46.35;98199.03;5039169;28;20499;-73
2022/08/05 10:13:34;;;;;;;2.50;1.75;;;;;;;27.96;41.51;98201.22;5038818;28;20167;-73
2022/08/05 10:16:33;;;;;;;4.53;2.22;;;;;;;27.98;42.58;98208.03;5042188;28;20124;-73
2022/08/05 10:19:08;;;;;;;5.70;2.05;;;;;;;28.00;42.23;98202.31;5037516;28;20128;-73
2022/08/05 10:21:37;;;;;;;2.85;1.83;;;;;;;28.56;38.49;98198.69;5037532;28;20044;-74
2022/08/05 10:24:11;;;;;;;8.40;1.77;;;;;;;28.48;41.19;98189.19;5040067;28;20060;-73
2022/08/05 10:26:42;;;;;;;;;;;;;;;28.62;41.28;98189.41;5043476;28;20049;-73
2022/08/05 10:29:20;;;;;;;2.35;1.92;;;;;;;28.56;40.25;98187.81;5040888;28;19952;-72
2022/08/05 10:32:07;;;;;;;3.08;1.85;;;;;;;28.57;39.27;98192.16;5040881;28;20063;-73
2022/08/05 10:34:57;;;;;;;2.28;1.92;;;;;;;28.14;42.09;98194.41;5036005;28;20046;-73
2022/08/05 10:37:29;;;;;;;3.13;1.83;;;;;;;28.52;38.43;98190.28;5035901;28;20684;-73
2022/08/05 10:40:19;;;;;;;2.90;1.95;;;;;;;28.72;37.44;98183.94;5055095;28;20511;-73
2022/08/05 10:42:57;;;;;;;1.73;1.63;;;;;;;28.93;38.07;98187.38;5039470;28;20099;-73
2022/08/05 10:45:25;;;;;;;3.13;1.88;;;;;;;28.89;39.90;98186.34;5043791;28;20800;-73
2022/08/05 10:48:44;;;;;;;1.73;1.63;;;;;;;28.95;38.66;98181.66;5036938;28;20501;-73
2022/08/05 10:51:25;;;;;;;9.25;2.03;;;;;;;28.85;40.05;98183.34;5037787;28;20068;-73
2022/08/05 10:53:58;;;;;;;1.90;1.80;;;;;;;28.49;39.71;98179.13;5037391;28;20049;-73
2022/08/05 10:56:44;;;;;;;2.38;1.63;;;;;;;28.96;37.29;98180.56;5037431;28;20053;-73
2022/08/05 10:59:15;;;;;;;1.92;1.77;;;;;;;29.15;38.08;98175.31;5033147;28;20045;-73
2022/08/05 11:02:10;;;;;;;3.70;2.07;;;;;;;29.17;38.33;98173.94;5038727;28;20603;-74
2022/08/05 11:04:56;;;;;;;3.10;1.85;;;;;;;29.28;36.66;98183.69;5034940;28;20315;-73
2022/08/05 11:07:23;;;;;;;3.72;2.17;;;;;;;29.12;37.18;98171.25;5041968;28;20056;-74
2022/08/05 11:10:21;;;;;;;2.20;1.85;;;;;;;29.36;36.35;98173.25;5035563;28;20046;-73
2022/08/05 11:12:54;;;;;;;5.78;2.08;;;;;;;29.36;37.12;98173.25;5034025;28;20045;-74
2022/08/05 11:15:32;;;;;;;3.38;1.65;;;;;;;28.79;39.81;98178.22;5039994;28;20061;-74
2022/08/05 11:18:24;;;;;;;3.28;2.05;;;;;;;28.84;40.08;98181.72;5037683;28;20086;-73
2022/08/05 11:20:51;;;;;;;1.85;1.75;;;;;;;28.60;37.01;98187.00;5045120;28;20052;-73
2022/08/05 11:23:40;;;;;;;2.65;1.83;;;;;;;29.11;37.47;98177.78;5040159;28;20526;-74
2022/08/05 11:26:27;;;;;;;2.90;1.90;;;;;;;29.50;37.59;98179.72;5035338;28;20064;-73
2022/08/05 11:29:03;;;;;;;3.35;1.75;;;;;;;29.39;38.14;98180.91;5038393;28;20049;-73
2022/08/05 11:31:39;;;;;;;4.60;1.70;;;;;;;29.22;39.75;98187.53;5036139;28;20052;-73
2022/08/05 11:34:40;;;;;;;6.15;2.17;;;;;;;29.22;38.11;98184.81;5036220;28;20052;-73
2022/08/05 11:37:58;;;;;;;5.25;1.95;;;;;;;29.14;38.03;98185.41;5038100;28;20429;-73
2022/08/05 11:40:59;;;;;;;4.47;2.20;;;;;;;29.21;36.86;98188.63;5037080;28;20067;-73
2022/08/05 11:44:10;;;;;;;1.92;1.40;;;;;;;29.37;38.33;98189.34;5039170;28;20496;-73
2022/08/05 11:46:50;;;;;;;9.15;2.08;;;;;;;29.34;37.55;98181.75;5034055;28;20041;-73
2022/08/05 11:49:38;;;;;;;6.00;1.85;;;;;;;28.81;37.65;98187.72;5041146;28;20044;-73
2022/08/05 11:52:09;;;;;;;4.33;2.10;;;;;;;29.29;36.97;98176.31;5037921;28;20055;-73
2022/08/05 11:54:38;;;;;;;5.50;1.92;;;;;;;29.68;38.17;98180.97;5037946;28;20132;-73
2022/08/05 11:57:07;;;;;;;2.05;1.85;;;;;;;29.03;37.37;98178.34;5039923;28;20548;-73
2022/08/05 11:59:53;;;;;;;3.83;1.55;;;;;;;29.38;36.91;98169.16;5028968;28;20130;-73
2022/08/05 12:02:25;;;;;;;4.60;2.00;;;;;;;29.58;36.84;98170.13;5035873;28;20044;-73
2022/08/05 12:05:01;;;;;;;2.08;1.52;;;;;;;29.59;38.21;98163.56;5030490;28;20045;-73
2022/08/05 12:07:35;;;;;;;3.42;2.15;;;;;;;29.55;36.10;98166.06;5037503;28;20099;-73
2022/08/05 12:10:25;;;;;;;4.50;2.38;;;;;;;29.87;36.02;98160.09;5036775;28;20384;-73
2022/08/05 12:13:16;;;;;;;3.38;2.10;;;;;;;29.88;36.83;98161.69;5037664;28;20049;-72
2022/08/05 12:16:08;;;;;;;5.20;2.53;;;;;;;30.29;35.14;98155.88;5041805;28;20049;-73
2022/08/05 12:18:40;;;;;;;3.70;1.80;;;;;;;30.00;36.61;98158.59;5037349;28;20041;-73
2022/08/05 12:21:17;;;;;;;2.10;1.85;;;;;;;30.22;36.58;98154.56;5040788;28;20045;-73
2022/08/05 12:24:31;;;;;;;3.95;1.98;;;;;;;29.94;37.35;98148.84;5042320;28;20063;-73